sensor_id;sensor_type;location;lat;lon;timestamp;P1;durP1;ratioP1;P2;durP2;ratioP2
13374;SDS011;6756;51.354;15.754;2023-05-10T00:02:43;6.93;;;5.70;;
13374;SDS011;6756;51.354;15.754;2023-05-10T00:06:44;7.83;;;6.37;;
13374;SDS011;6756;51.354;15.754;2023-05-10T00:10:45;9.37;;;6.10;;
13374;SDS011;6756;51.354;15.754;2023-05-10T00:14:46;8.47;;;5.57;;
13374;SDS011;6756;51.354;15.754;2023-05-10T00:18:47;7.17;;;5.67;;
13374;SDS011;6756;51.354;15.754;2023-05-10T00:22:48;12.87;;;6.60;;
13374;SDS011;6756;51.354;15.754;2023-05-10T00:26:49;7.93;;;5.97;;
13374;SDS011;6756;51.354;15.754;2023-05-10T00:30:50;9.10;;;6.47;;
13374;SDS011;6756;51.354;15.754;2023-05-10T00:34:54;8.67;;;6.33;;
13374;SDS011;6756;51.354;15.754;2023-05-10T00:38:55;8.83;;;6.70;;
13374;SDS011;6756;51.354;15.754;2023-05-10T00:42:56;8.50;;;6.50;;
13374;SDS011;6756;51.354;15.754;2023-05-10T00:46:58;8.20;;;6.40;;
13374;SDS011;6756;51.354;15.754;2023-05-10T00:51:00;7.47;;;6.43;;
13374;SDS011;6756;51.354;15.754;2023-05-10T00:55:02;9.13;;;6.57;;
13374;SDS011;6756;51.354;15.754;2023-05-10T00:59:04;11.00;;;7.00;;
13374;SDS011;6756;51.354;15.754;2023-05-10T01:03:10;7.70;;;6.33;;
13374;SDS011;6756;51.354;15.754;2023-05-10T01:07:11;9.53;;;6.53;;
13374;SDS011;6756;51.354;15.754;2023-05-10T01:11:12;8.20;;;6.43;;
13374;SDS011;6756;51.354;15.754;2023-05-10T01:15:14;9.50;;;5.67;;
13374;SDS011;6756;51.354;15.754;2023-05-10T01:19:24;11.17;;;7.13;;
13374;SDS011;6756;51.354;15.754;2023-05-10T01:40:42;7.37;;;6.17;;
13374;SDS011;6756;51.354;15.754;2023-05-10T01:45:05;8.87;;;6.23;;
13374;SDS011;6756;51.354;15.754;2023-05-10T01:49:21;9.73;;;7.00;;
13374;SDS011;6756;51.354;15.754;2023-05-10T01:53:26;8.87;;;6.83;;
13374;SDS011;6756;51.354;15.754;2023-05-10T01:57:31;9.00;;;6.57;;
13374;SDS011;6756;51.354;15.754;2023-05-10T02:01:41;8.00;;;6.60;;
13374;SDS011;6756;51.354;15.754;2023-05-10T02:05:46;10.27;;;7.60;;
13374;SDS011;6756;51.354;15.754;2023-05-10T02:09:53;9.17;;;6.20;;
13374;SDS011;6756;51.354;15.754;2023-05-10T02:13:58;8.33;;;6.60;;
13374;SDS011;6756;51.354;15.754;2023-05-10T02:18:00;8.67;;;7.13;;
13374;SDS011;6756;51.354;15.754;2023-05-10T02:22:04;11.50;;;7.43;;
13374;SDS011;6756;51.354;15.754;2023-05-10T02:26:06;10.13;;;7.07;;
13374;SDS011;6756;51.354;15.754;2023-05-10T02:30:08;11.23;;;7.73;;
13374;SDS011;6756;51.354;15.754;2023-05-10T02:34:11;8.30;;;6.20;;
13374;SDS011;6756;51.354;15.754;2023-05-10T02:38:13;9.87;;;6.37;;
13374;SDS011;6756;51.354;15.754;2023-05-10T02:42:16;10.00;;;7.07;;
13374;SDS011;6756;51.354;15.754;2023-05-10T02:46:19;8.53;;;6.50;;
13374;SDS011;6756;51.354;15.754;2023-05-10T02:50:20;9.73;;;6.80;;
13374;SDS011;6756;51.354;15.754;2023-05-10T02:54:31;9.00;;;6.30;;
13374;SDS011;6756;51.354;15.754;2023-05-10T02:58:54;11.87;;;6.53;;
13374;SDS011;6756;51.354;15.754;2023-05-10T03:02:55;9.57;;;6.90;;
13374;SDS011;6756;51.354;15.754;2023-05-10T03:06:56;10.60;;;7.80;;
13374;SDS011;6756;51.354;15.754;2023-05-10T03:15:21;11.40;;;9.60;;
13374;SDS011;6756;51.354;15.754;2023-05-10T03:28:06;25.03;;;13.60;;
13374;SDS011;6756;51.354;15.754;2023-05-10T03:32:07;9.70;;;7.73;;
13374;SDS011;6756;51.354;15.754;2023-05-10T03:36:11;13.23;;;8.07;;
13374;SDS011;6756;51.354;15.754;2023-05-10T03:40:12;12.73;;;7.47;;
13374;SDS011;6756;51.354;15.754;2023-05-10T03:44:13;14.33;;;8.40;;
13374;SDS011;6756;51.354;15.754;2023-05-10T03:48:14;13.67;;;9.47;;
13374;SDS011;6756;51.354;15.754;2023-05-10T03:52:15;10.37;;;6.53;;
13374;SDS011;6756;51.354;15.754;2023-05-10T03:56:16;18.67;;;10.20;;
13374;SDS011;6756;51.354;15.754;2023-05-10T04:00:17;11.77;;;7.77;;
13374;SDS011;6756;51.354;15.754;2023-05-10T04:04:18;14.57;;;7.90;;
13374;SDS011;6756;51.354;15.754;2023-05-10T04:08:20;16.20;;;8.70;;
13374;SDS011;6756;51.354;15.754;2023-05-10T04:12:22;9.33;;;6.70;;
13374;SDS011;6756;51.354;15.754;2023-05-10T04:16:23;9.73;;;7.90;;
13374;SDS011;6756;51.354;15.754;2023-05-10T04:20:24;12.03;;;8.73;;
13374;SDS011;6756;51.354;15.754;2023-05-10T04:24:25;14.13;;;9.77;;
13374;SDS011;6756;51.354;15.754;2023-05-10T04:28:30;7.90;;;5.77;;
13374;SDS011;6756;51.354;15.754;2023-05-10T04:32:31;11.17;;;6.20;;
13374;SDS011;6756;51.354;15.754;2023-05-10T04:36:32;5.87;;;5.13;;
13374;SDS011;6756;51.354;15.754;2023-05-10T04:40:35;6.63;;;5.07;;
13374;SDS011;6756;51.354;15.754;2023-05-10T04:44:39;9.20;;;5.03;;
13374;SDS011;6756;51.354;15.754;2023-05-10T04:48:42;7.53;;;5.73;;
13374;SDS011;6756;51.354;15.754;2023-05-10T04:52:43;8.37;;;7.33;;
13374;SDS011;6756;51.354;15.754;2023-05-10T04:56:44;7.57;;;5.80;;
13374;SDS011;6756;51.354;15.754;2023-05-10T05:00:45;6.53;;;5.27;;
13374;SDS011;6756;51.354;15.754;2023-05-10T05:04:46;7.10;;;5.60;;
13374;SDS011;6756;51.354;15.754;2023-05-10T05:08:47;6.40;;;4.77;;
13374;SDS011;6756;51.354;15.754;2023-05-10T05:12:49;9.43;;;5.67;;
13374;SDS011;6756;51.354;15.754;2023-05-10T05:16:53;9.07;;;5.87;;
13374;SDS011;6756;51.354;15.754;2023-05-10T05:20:55;7.37;;;4.07;;
13374;SDS011;6756;51.354;15.754;2023-05-10T05:24:56;7.03;;;4.90;;
13374;SDS011;6756;51.354;15.754;2023-05-10T05:29:02;6.97;;;4.50;;
13374;SDS011;6756;51.354;15.754;2023-05-10T05:33:03;5.67;;;4.70;;
13374;SDS011;6756;51.354;15.754;2023-05-10T05:37:04;6.67;;;4.50;;
13374;SDS011;6756;51.354;15.754;2023-05-10T05:41:07;7.27;;;5.60;;
13374;SDS011;6756;51.354;15.754;2023-05-10T05:45:08;6.10;;;4.57;;
13374;SDS011;6756;51.354;15.754;2023-05-10T05:49:12;6.60;;;4.37;;
13374;SDS011;6756;51.354;15.754;2023-05-10T05:53:14;8.97;;;5.20;;
13374;SDS011;6756;51.354;15.754;2023-05-10T05:57:14;9.70;;;5.30;;
13374;SDS011;6756;51.354;15.754;2023-05-10T06:01:16;6.53;;;5.10;;
13374;SDS011;6756;51.354;15.754;2023-05-10T06:05:17;7.50;;;4.87;;
13374;SDS011;6756;51.354;15.754;2023-05-10T06:09:18;7.10;;;4.90;;
13374;SDS011;6756;51.354;15.754;2023-05-10T06:13:19;6.37;;;4.00;;
13374;SDS011;6756;51.354;15.754;2023-05-10T06:17:20;4.80;;;3.83;;
13374;SDS011;6756;51.354;15.754;2023-05-10T06:21:21;4.90;;;4.10;;
13374;SDS011;6756;51.354;15.754;2023-05-10T06:25:22;5.07;;;4.20;;
13374;SDS011;6756;51.354;15.754;2023-05-10T06:29:23;4.93;;;3.47;;
13374;SDS011;6756;51.354;15.754;2023-05-10T06:33:24;6.30;;;4.10;;
13374;SDS011;6756;51.354;15.754;2023-05-10T06:37:25;6.97;;;4.17;;
13374;SDS011;6756;51.354;15.754;2023-05-10T06:41:29;4.37;;;3.43;;
13374;SDS011;6756;51.354;15.754;2023-05-10T06:45:30;5.40;;;3.80;;
13374;SDS011;6756;51.354;15.754;2023-05-10T06:49:31;5.47;;;3.90;;
13374;SDS011;6756;51.354;15.754;2023-05-10T06:53:32;5.60;;;3.33;;
13374;SDS011;6756;51.354;15.754;2023-05-10T06:57:34;5.03;;;3.67;;
13374;SDS011;6756;51.354;15.754;2023-05-10T07:01:35;11.10;;;8.03;;
13374;SDS011;6756;51.354;15.754;2023-05-10T07:05:39;5.00;;;3.93;;
13374;SDS011;6756;51.354;15.754;2023-05-10T07:09:40;6.70;;;4.10;;
13374;SDS011;6756;51.354;15.754;2023-05-10T07:13:42;5.07;;;3.50;;
13374;SDS011;6756;51.354;15.754;2023-05-10T07:17:44;6.23;;;4.10;;
13374;SDS011;6756;51.354;15.754;2023-05-10T07:21:45;8.23;;;4.20;;
13374;SDS011;6756;51.354;15.754;2023-05-10T07:25:50;6.80;;;3.70;;
13374;SDS011;6756;51.354;15.754;2023-05-10T07:29:52;6.33;;;4.23;;
13374;SDS011;6756;51.354;15.754;2023-05-10T07:33:56;5.20;;;3.50;;
13374;SDS011;6756;51.354;15.754;2023-05-10T07:38:00;4.63;;;3.00;;
13374;SDS011;6756;51.354;15.754;2023-05-10T07:42:01;3.27;;;2.53;;
13374;SDS011;6756;51.354;15.754;2023-05-10T07:46:06;5.73;;;2.60;;
13374;SDS011;6756;51.354;15.754;2023-05-10T07:50:07;4.27;;;2.53;;
13374;SDS011;6756;51.354;15.754;2023-05-10T07:54:08;4.17;;;2.30;;
13374;SDS011;6756;51.354;15.754;2023-05-10T07:58:12;4.40;;;2.80;;
13374;SDS011;6756;51.354;15.754;2023-05-10T08:02:13;4.33;;;2.60;;
13374;SDS011;6756;51.354;15.754;2023-05-10T08:06:17;3.57;;;2.40;;
13374;SDS011;6756;51.354;15.754;2023-05-10T08:10:19;4.33;;;2.40;;
13374;SDS011;6756;51.354;15.754;2023-05-10T08:14:20;7.33;;;2.40;;
13374;SDS011;6756;51.354;15.754;2023-05-10T08:18:21;2.90;;;2.20;;
13374;SDS011;6756;51.354;15.754;2023-05-10T08:22:22;3.73;;;2.30;;
13374;SDS011;6756;51.354;15.754;2023-05-10T08:26:23;3.03;;;2.53;;
13374;SDS011;6756;51.354;15.754;2023-05-10T08:30:24;4.10;;;2.53;;
13374;SDS011;6756;51.354;15.754;2023-05-10T08:34:26;3.43;;;2.40;;
13374;SDS011;6756;51.354;15.754;2023-05-10T08:38:27;6.00;;;2.90;;
13374;SDS011;6756;51.354;15.754;2023-05-10T08:42:28;4.83;;;2.90;;
13374;SDS011;6756;51.354;15.754;2023-05-10T08:46:31;4.33;;;2.97;;
13374;SDS011;6756;51.354;15.754;2023-05-10T08:50:37;4.17;;;2.80;;
13374;SDS011;6756;51.354;15.754;2023-05-10T08:54:48;6.57;;;3.27;;
13374;SDS011;6756;51.354;15.754;2023-05-10T08:58:50;7.23;;;3.63;;
13374;SDS011;6756;51.354;15.754;2023-05-10T09:02:51;5.57;;;3.10;;
13374;SDS011;6756;51.354;15.754;2023-05-10T09:06:57;4.90;;;3.23;;
13374;SDS011;6756;51.354;15.754;2023-05-10T09:11:01;5.47;;;3.23;;
13374;SDS011;6756;51.354;15.754;2023-05-10T09:15:03;5.93;;;3.00;;
13374;SDS011;6756;51.354;15.754;2023-05-10T09:19:05;6.90;;;3.17;;
13374;SDS011;6756;51.354;15.754;2023-05-10T09:23:08;3.80;;;2.70;;
13374;SDS011;6756;51.354;15.754;2023-05-10T09:27:09;6.63;;;2.90;;
13374;SDS011;6756;51.354;15.754;2023-05-10T09:31:11;6.27;;;2.70;;
13374;SDS011;6756;51.354;15.754;2023-05-10T09:35:15;3.10;;;2.50;;
13374;SDS011;6756;51.354;15.754;2023-05-10T09:39:37;4.37;;;2.90;;
13374;SDS011;6756;51.354;15.754;2023-05-10T09:43:41;5.37;;;4.13;;
13374;SDS011;6756;51.354;15.754;2023-05-10T09:47:46;4.03;;;2.70;;
13374;SDS011;6756;51.354;15.754;2023-05-10T09:51:59;4.47;;;2.40;;
13374;SDS011;6756;51.354;15.754;2023-05-10T09:56:07;4.10;;;2.07;;
13374;SDS011;6756;51.354;15.754;2023-05-10T10:00:14;4.70;;;2.00;;
13374;SDS011;6756;51.354;15.754;2023-05-10T10:04:20;3.43;;;2.27;;
13374;SDS011;6756;51.354;15.754;2023-05-10T10:08:21;2.77;;;2.00;;
13374;SDS011;6756;51.354;15.754;2023-05-10T10:12:22;3.50;;;1.93;;
13374;SDS011;6756;51.354;15.754;2023-05-10T10:16:24;4.17;;;1.93;;
13374;SDS011;6756;51.354;15.754;2023-05-10T10:20:27;4.50;;;2.10;;
13374;SDS011;6756;51.354;15.754;2023-05-10T10:24:29;3.67;;;2.10;;
13374;SDS011;6756;51.354;15.754;2023-05-10T10:28:33;3.40;;;2.10;;
13374;SDS011;6756;51.354;15.754;2023-05-10T10:37:11;4.47;;;1.63;;
13374;SDS011;6756;51.354;15.754;2023-05-10T10:45:38;6.10;;;1.80;;
13374;SDS011;6756;51.354;15.754;2023-05-10T10:53:41;2.03;;;1.30;;
13374;SDS011;6756;51.354;15.754;2023-05-10T10:57:56;2.70;;;1.57;;
13374;SDS011;6756;51.354;15.754;2023-05-10T11:02:04;3.57;;;1.20;;
13374;SDS011;6756;51.354;15.754;2023-05-10T11:06:10;1.90;;;1.50;;
13374;SDS011;6756;51.354;15.754;2023-05-10T11:10:28;4.00;;;1.50;;
13374;SDS011;6756;51.354;15.754;2023-05-10T11:14:29;3.30;;;1.60;;
13374;SDS011;6756;51.354;15.754;2023-05-10T11:18:36;15.10;;;2.40;;
13374;SDS011;6756;51.354;15.754;2023-05-10T11:22:50;2.93;;;1.30;;
13374;SDS011;6756;51.354;15.754;2023-05-10T11:26:52;3.40;;;1.90;;
13374;SDS011;6756;51.354;15.754;2023-05-10T11:30:58;3.23;;;1.30;;
13374;SDS011;6756;51.354;15.754;2023-05-10T11:34:59;3.13;;;1.67;;
13374;SDS011;6756;51.354;15.754;2023-05-10T11:39:00;2.60;;;1.70;;
13374;SDS011;6756;51.354;15.754;2023-05-10T11:43:04;2.03;;;1.60;;
13374;SDS011;6756;51.354;15.754;2023-05-10T11:47:09;2.40;;;1.80;;
13374;SDS011;6756;51.354;15.754;2023-05-10T11:51:10;2.10;;;1.60;;
13374;SDS011;6756;51.354;15.754;2023-05-10T11:55:14;4.33;;;1.70;;
13374;SDS011;6756;51.354;15.754;2023-05-10T11:59:15;2.43;;;1.27;;
13374;SDS011;6756;51.354;15.754;2023-05-10T12:03:16;1.90;;;1.57;;
13374;SDS011;6756;51.354;15.754;2023-05-10T12:07:18;2.03;;;1.60;;
13374;SDS011;6756;51.354;15.754;2023-05-10T12:11:19;3.47;;;1.47;;
13374;SDS011;6756;51.354;15.754;2023-05-10T12:15:25;5.67;;;1.57;;
13374;SDS011;6756;51.354;15.754;2023-05-10T12:19:27;2.10;;;1.60;;
13374;SDS011;6756;51.354;15.754;2023-05-10T12:23:28;1.60;;;1.40;;
13374;SDS011;6756;51.354;15.754;2023-05-10T12:27:33;3.87;;;1.80;;
13374;SDS011;6756;51.354;15.754;2023-05-10T12:31:45;2.00;;;1.33;;
13374;SDS011;6756;51.354;15.754;2023-05-10T12:36:03;2.17;;;1.30;;
13374;SDS011;6756;51.354;15.754;2023-05-10T12:40:05;4.57;;;1.60;;
13374;SDS011;6756;51.354;15.754;2023-05-10T12:44:13;3.27;;;1.70;;
13374;SDS011;6756;51.354;15.754;2023-05-10T12:48:15;3.57;;;1.50;;
13374;SDS011;6756;51.354;15.754;2023-05-10T12:52:16;4.40;;;1.30;;
13374;SDS011;6756;51.354;15.754;2023-05-10T12:56:17;2.73;;;1.17;;
13374;SDS011;6756;51.354;15.754;2023-05-10T13:00:18;3.80;;;1.30;;
13374;SDS011;6756;51.354;15.754;2023-05-10T13:04:22;3.70;;;1.20;;
13374;SDS011;6756;51.354;15.754;2023-05-10T13:08:23;1.80;;;1.40;;
13374;SDS011;6756;51.354;15.754;2023-05-10T13:12:25;3.50;;;1.50;;
13374;SDS011;6756;51.354;15.754;2023-05-10T13:16:26;2.77;;;1.60;;
13374;SDS011;6756;51.354;15.754;2023-05-10T13:20:26;2.57;;;1.10;;
13374;SDS011;6756;51.354;15.754;2023-05-10T13:24:30;2.33;;;1.03;;
13374;SDS011;6756;51.354;15.754;2023-05-10T13:28:31;2.73;;;1.30;;
13374;SDS011;6756;51.354;15.754;2023-05-10T13:32:33;1.80;;;1.30;;
13374;SDS011;6756;51.354;15.754;2023-05-10T13:36:37;3.07;;;1.57;;
13374;SDS011;6756;51.354;15.754;2023-05-10T13:40:38;3.30;;;1.60;;
13374;SDS011;6756;51.354;15.754;2023-05-10T13:44:39;5.73;;;1.40;;
13374;SDS011;6756;51.354;15.754;2023-05-10T13:48:46;4.33;;;1.80;;
13374;SDS011;6756;51.354;15.754;2023-05-10T13:52:50;2.97;;;1.60;;
13374;SDS011;6756;51.354;15.754;2023-05-10T13:56:57;4.00;;;1.33;;
13374;SDS011;6756;51.354;15.754;2023-05-10T14:01:08;2.10;;;1.30;;
13374;SDS011;6756;51.354;15.754;2023-05-10T14:05:09;5.97;;;1.30;;
13374;SDS011;6756;51.354;15.754;2023-05-10T14:09:10;2.07;;;1.17;;
13374;SDS011;6756;51.354;15.754;2023-05-10T14:13:11;5.60;;;1.67;;
13374;SDS011;6756;51.354;15.754;2023-05-10T14:17:13;1.20;;;1.00;;
13374;SDS011;6756;51.354;15.754;2023-05-10T14:21:14;1.97;;;1.17;;
13374;SDS011;6756;51.354;15.754;2023-05-10T14:25:15;2.27;;;1.37;;
13374;SDS011;6756;51.354;15.754;2023-05-10T14:29:16;3.67;;;1.20;;
13374;SDS011;6756;51.354;15.754;2023-05-10T14:33:17;2.93;;;1.13;;
13374;SDS011;6756;51.354;15.754;2023-05-10T14:37:19;2.77;;;1.47;;
13374;SDS011;6756;51.354;15.754;2023-05-10T14:41:20;1.53;;;1.17;;
13374;SDS011;6756;51.354;15.754;2023-05-10T14:45:21;7.03;;;1.37;;
13374;SDS011;6756;51.354;15.754;2023-05-10T14:49:22;4.87;;;1.40;;
13374;SDS011;6756;51.354;15.754;2023-05-10T14:53:25;3.43;;;1.43;;
13374;SDS011;6756;51.354;15.754;2023-05-10T14:57:26;2.57;;;1.63;;
13374;SDS011;6756;51.354;15.754;2023-05-10T15:01:29;1.60;;;1.10;;
13374;SDS011;6756;51.354;15.754;2023-05-10T15:05:32;5.87;;;1.40;;
13374;SDS011;6756;51.354;15.754;2023-05-10T15:09:33;2.53;;;1.00;;
13374;SDS011;6756;51.354;15.754;2023-05-10T15:13:34;1.00;;;0.87;;
13374;SDS011;6756;51.354;15.754;2023-05-10T15:17:38;1.60;;;1.10;;
13374;SDS011;6756;51.354;15.754;2023-05-10T15:21:39;7.00;;;1.53;;
13374;SDS011;6756;51.354;15.754;2023-05-10T15:25:42;3.33;;;1.00;;
13374;SDS011;6756;51.354;15.754;2023-05-10T15:29:44;2.13;;;1.20;;
13374;SDS011;6756;51.354;15.754;2023-05-10T15:33:45;4.83;;;1.40;;
13374;SDS011;6756;51.354;15.754;2023-05-10T15:37:49;2.30;;;1.20;;
13374;SDS011;6756;51.354;15.754;2023-05-10T15:41:59;5.27;;;1.50;;
13374;SDS011;6756;51.354;15.754;2023-05-10T15:46:01;4.60;;;1.70;;
13374;SDS011;6756;51.354;15.754;2023-05-10T15:50:06;3.73;;;1.47;;
13374;SDS011;6756;51.354;15.754;2023-05-10T15:54:13;4.87;;;1.40;;
13374;SDS011;6756;51.354;15.754;2023-05-10T15:58:18;1.83;;;1.30;;
13374;SDS011;6756;51.354;15.754;2023-05-10T16:02:22;4.87;;;1.50;;
13374;SDS011;6756;51.354;15.754;2023-05-10T16:06:26;2.53;;;1.30;;
13374;SDS011;6756;51.354;15.754;2023-05-10T16:10:27;1.30;;;1.00;;
13374;SDS011;6756;51.354;15.754;2023-05-10T16:14:30;4.73;;;1.53;;
13374;SDS011;6756;51.354;15.754;2023-05-10T16:18:58;2.13;;;1.60;;
13374;SDS011;6756;51.354;15.754;2023-05-10T16:23:03;2.17;;;1.43;;
13374;SDS011;6756;51.354;15.754;2023-05-10T16:27:09;3.33;;;1.50;;
13374;SDS011;6756;51.354;15.754;2023-05-10T16:31:14;2.17;;;1.30;;
13374;SDS011;6756;51.354;15.754;2023-05-10T16:35:20;2.10;;;1.30;;
13374;SDS011;6756;51.354;15.754;2023-05-10T16:39:24;2.33;;;1.70;;
13374;SDS011;6756;51.354;15.754;2023-05-10T16:43:25;5.83;;;1.40;;
13374;SDS011;6756;51.354;15.754;2023-05-10T16:47:26;2.63;;;1.53;;
13374;SDS011;6756;51.354;15.754;2023-05-10T16:51:28;2.60;;;1.60;;
13374;SDS011;6756;51.354;15.754;2023-05-10T16:55:29;4.03;;;1.50;;
13374;SDS011;6756;51.354;15.754;2023-05-10T16:59:39;2.77;;;1.23;;
13374;SDS011;6756;51.354;15.754;2023-05-10T17:03:42;5.33;;;1.93;;
13374;SDS011;6756;51.354;15.754;2023-05-10T17:07:43;5.53;;;1.40;;
13374;SDS011;6756;51.354;15.754;2023-05-10T17:11:44;3.20;;;1.80;;
13374;SDS011;6756;51.354;15.754;2023-05-10T17:15:46;4.43;;;1.73;;
13374;SDS011;6756;51.354;15.754;2023-05-10T17:19:47;5.77;;;1.63;;
13374;SDS011;6756;51.354;15.754;2023-05-10T17:23:48;1.97;;;1.50;;
13374;SDS011;6756;51.354;15.754;2023-05-10T17:27:49;1.83;;;1.47;;
13374;SDS011;6756;51.354;15.754;2023-05-10T17:31:50;3.37;;;1.50;;
13374;SDS011;6756;51.354;15.754;2023-05-10T17:35:51;3.80;;;1.50;;
13374;SDS011;6756;51.354;15.754;2023-05-10T17:39:52;2.93;;;1.33;;
13374;SDS011;6756;51.354;15.754;2023-05-10T17:43:59;3.63;;;1.60;;
13374;SDS011;6756;51.354;15.754;2023-05-10T17:48:02;1.93;;;1.67;;
13374;SDS011;6756;51.354;15.754;2023-05-10T17:52:03;2.30;;;1.60;;
13374;SDS011;6756;51.354;15.754;2023-05-10T17:56:04;4.13;;;1.93;;
13374;SDS011;6756;51.354;15.754;2023-05-10T18:00:06;2.37;;;1.30;;
13374;SDS011;6756;51.354;15.754;2023-05-10T18:04:08;2.50;;;1.60;;
13374;SDS011;6756;51.354;15.754;2023-05-10T18:08:09;2.33;;;1.70;;
13374;SDS011;6756;51.354;15.754;2023-05-10T18:12:10;3.37;;;1.93;;
13374;SDS011;6756;51.354;15.754;2023-05-10T18:16:11;2.73;;;1.90;;
13374;SDS011;6756;51.354;15.754;2023-05-10T18:20:12;2.87;;;1.60;;
13374;SDS011;6756;51.354;15.754;2023-05-10T18:24:13;4.57;;;2.37;;
13374;SDS011;6756;51.354;15.754;2023-05-10T18:28:14;2.83;;;1.90;;
13374;SDS011;6756;51.354;15.754;2023-05-10T18:32:15;5.10;;;2.30;;
13374;SDS011;6756;51.354;15.754;2023-05-10T18:36:16;5.20;;;2.00;;
13374;SDS011;6756;51.354;15.754;2023-05-10T18:40:20;3.33;;;1.80;;
13374;SDS011;6756;51.354;15.754;2023-05-10T18:44:21;3.47;;;2.00;;
13374;SDS011;6756;51.354;15.754;2023-05-10T18:48:25;4.30;;;1.97;;
13374;SDS011;6756;51.354;15.754;2023-05-10T18:52:26;1.93;;;1.73;;
13374;SDS011;6756;51.354;15.754;2023-05-10T18:56:27;2.63;;;1.83;;
13374;SDS011;6756;51.354;15.754;2023-05-10T19:00:28;2.63;;;1.97;;
13374;SDS011;6756;51.354;15.754;2023-05-10T19:04:29;2.50;;;1.87;;
13374;SDS011;6756;51.354;15.754;2023-05-10T19:08:30;4.03;;;2.30;;
13374;SDS011;6756;51.354;15.754;2023-05-10T19:12:34;3.20;;;2.30;;
13374;SDS011;6756;51.354;15.754;2023-05-10T19:16:37;4.17;;;2.47;;
13374;SDS011;6756;51.354;15.754;2023-05-10T19:20:41;2.67;;;2.30;;
13374;SDS011;6756;51.354;15.754;2023-05-10T19:24:48;4.20;;;2.40;;
13374;SDS011;6756;51.354;15.754;2023-05-10T19:28:51;2.50;;;2.17;;
13374;SDS011;6756;51.354;15.754;2023-05-10T19:32:54;2.70;;;2.30;;
13374;SDS011;6756;51.354;15.754;2023-05-10T19:36:55;5.80;;;2.33;;
13374;SDS011;6756;51.354;15.754;2023-05-10T19:40:56;3.27;;;2.20;;
13374;SDS011;6756;51.354;15.754;2023-05-10T19:44:57;3.53;;;2.40;;
13374;SDS011;6756;51.354;15.754;2023-05-10T19:48:58;3.87;;;2.17;;
13374;SDS011;6756;51.354;15.754;2023-05-10T19:52:59;2.97;;;2.40;;
13374;SDS011;6756;51.354;15.754;2023-05-10T19:57:00;4.10;;;2.30;;
13374;SDS011;6756;51.354;15.754;2023-05-10T20:01:01;3.13;;;2.43;;
13374;SDS011;6756;51.354;15.754;2023-05-10T20:05:04;3.03;;;2.73;;
13374;SDS011;6756;51.354;15.754;2023-05-10T20:09:06;3.27;;;2.77;;
13374;SDS011;6756;51.354;15.754;2023-05-10T20:13:07;3.70;;;2.40;;
13374;SDS011;6756;51.354;15.754;2023-05-10T20:17:08;2.80;;;2.50;;
13374;SDS011;6756;51.354;15.754;2023-05-10T20:21:09;2.97;;;2.47;;
13374;SDS011;6756;51.354;15.754;2023-05-10T20:25:10;2.83;;;2.57;;
13374;SDS011;6756;51.354;15.754;2023-05-10T20:29:11;3.37;;;2.60;;
13374;SDS011;6756;51.354;15.754;2023-05-10T20:33:15;4.70;;;2.60;;
13374;SDS011;6756;51.354;15.754;2023-05-10T20:37:16;3.50;;;2.60;;
13374;SDS011;6756;51.354;15.754;2023-05-10T20:41:17;3.50;;;2.60;;
13374;SDS011;6756;51.354;15.754;2023-05-10T20:45:18;3.80;;;2.87;;
13374;SDS011;6756;51.354;15.754;2023-05-10T20:49:22;3.80;;;2.57;;
13374;SDS011;6756;51.354;15.754;2023-05-10T20:53:23;4.57;;;2.77;;
13374;SDS011;6756;51.354;15.754;2023-05-10T20:57:24;3.37;;;2.70;;
13374;SDS011;6756;51.354;15.754;2023-05-10T21:01:31;3.00;;;2.70;;
13374;SDS011;6756;51.354;15.754;2023-05-10T21:05:32;3.67;;;3.07;;
13374;SDS011;6756;51.354;15.754;2023-05-10T21:09:35;3.23;;;2.60;;
13374;SDS011;6756;51.354;15.754;2023-05-10T21:13:37;3.10;;;2.80;;
13374;SDS011;6756;51.354;15.754;2023-05-10T21:17:38;3.57;;;2.97;;
13374;SDS011;6756;51.354;15.754;2023-05-10T21:21:39;4.30;;;3.57;;
13374;SDS011;6756;51.354;15.754;2023-05-10T21:25:40;3.87;;;3.00;;
13374;SDS011;6756;51.354;15.754;2023-05-10T21:29:41;4.03;;;3.30;;
13374;SDS011;6756;51.354;15.754;2023-05-10T21:33:42;4.77;;;3.33;;
13374;SDS011;6756;51.354;15.754;2023-05-10T21:37:45;4.43;;;3.60;;
13374;SDS011;6756;51.354;15.754;2023-05-10T21:41:46;5.00;;;3.60;;
13374;SDS011;6756;51.354;15.754;2023-05-10T21:45:47;4.20;;;3.43;;
13374;SDS011;6756;51.354;15.754;2023-05-10T21:49:48;5.60;;;3.67;;
13374;SDS011;6756;51.354;15.754;2023-05-10T21:53:49;4.40;;;3.73;;
13374;SDS011;6756;51.354;15.754;2023-05-10T21:57:50;4.33;;;3.73;;
13374;SDS011;6756;51.354;15.754;2023-05-10T22:01:51;4.80;;;3.50;;
13374;SDS011;6756;51.354;15.754;2023-05-10T22:05:52;5.07;;;3.57;;
13374;SDS011;6756;51.354;15.754;2023-05-10T22:09:53;6.60;;;4.03;;
13374;SDS011;6756;51.354;15.754;2023-05-10T22:13:54;4.07;;;3.50;;
13374;SDS011;6756;51.354;15.754;2023-05-10T22:17:55;5.87;;;3.73;;
13374;SDS011;6756;51.354;15.754;2023-05-10T22:21:56;4.87;;;3.77;;
13374;SDS011;6756;51.354;15.754;2023-05-10T22:26:01;4.67;;;3.67;;
13374;SDS011;6756;51.354;15.754;2023-05-10T22:30:02;4.00;;;3.53;;
13374;SDS011;6756;51.354;15.754;2023-05-10T22:34:06;6.23;;;4.00;;
13374;SDS011;6756;51.354;15.754;2023-05-10T22:38:07;5.13;;;4.20;;
13374;SDS011;6756;51.354;15.754;2023-05-10T22:42:08;5.07;;;4.10;;
13374;SDS011;6756;51.354;15.754;2023-05-10T22:46:09;4.97;;;3.47;;
13374;SDS011;6756;51.354;15.754;2023-05-10T22:50:10;3.10;;;2.80;;
13374;SDS011;6756;51.354;15.754;2023-05-10T22:54:13;3.77;;;3.40;;
13374;SDS011;6756;51.354;15.754;2023-05-10T22:58:14;6.50;;;3.57;;
13374;SDS011;6756;51.354;15.754;2023-05-10T23:02:15;4.97;;;3.67;;
13374;SDS011;6756;51.354;15.754;2023-05-10T23:06:16;4.50;;;3.77;;
13374;SDS011;6756;51.354;15.754;2023-05-10T23:10:20;6.17;;;3.80;;
13374;SDS011;6756;51.354;15.754;2023-05-10T23:14:21;5.53;;;4.50;;
13374;SDS011;6756;51.354;15.754;2023-05-10T23:18:23;5.47;;;3.80;;
13374;SDS011;6756;51.354;15.754;2023-05-10T23:22:26;6.13;;;4.60;;
13374;SDS011;6756;51.354;15.754;2023-05-10T23:26:30;5.00;;;4.17;;
13374;SDS011;6756;51.354;15.754;2023-05-10T23:30:31;6.07;;;4.20;;
13374;SDS011;6756;51.354;15.754;2023-05-10T23:34:32;6.23;;;4.20;;
13374;SDS011;6756;51.354;15.754;2023-05-10T23:38:33;5.90;;;4.10;;
13374;SDS011;6756;51.354;15.754;2023-05-10T23:42:34;6.33;;;4.33;;
13374;SDS011;6756;51.354;15.754;2023-05-10T23:46:35;5.30;;;3.87;;
13374;SDS011;6756;51.354;15.754;2023-05-10T23:50:51;5.13;;;4.10;;
13374;SDS011;6756;51.354;15.754;2023-05-10T23:54:52;4.77;;;3.80;;
13374;SDS011;6756;51.354;15.754;2023-05-10T23:58:53;5.00;;;3.93;;
